Hovedside
METAR-TAF:

METAR-TAF

Lufthavner :

Boscombe Down, England

breddegrad: 51-10N, lengdegrad: 001-45W, høyde over havet: 124 m

Gjeldene værobservasjon

Denne rapporten ble laget for 1 time og 5 minutter siden, klokken 00:50 UTC
Vind 26 kt fra Sør-sørvest
Temperatur 10°C
Luftfuktighet 93%
Trykk 990 hPa
Sikt: 6000 m
dis

METAR: EGDM 290050Z AUTO 20026KT 6000 BR BKN006/// 10/09 Q0990 RERA

Tid: 01:55 (01:55 UTC)

Varsel

Denne rapporten ble laget for 12 timer og 15 minutter siden, klokken 13:40 UTC
Varsel gyldig fra 28. klokken 15 UTC til 28. klokken 18 UTC
Vind 18 kt fra Sør-sørvest med vindkast opp mot 28 kt
Sikt: 8000 m
Brutte skyer i en høyde av 1000 ft
lett regn, duskregn
Midlertidig
fra 28. klokken 15 UTC til 28. klokken 18 UTC
Sikt: 3000 m
Spredte skyer i en høyde av 500 ft
regn, duskregn

TAF: EGDM 281340Z 2815/2818 21018G28KT 8000 -RADZ BKN010 TEMPO 2815/2818 3000 RADZ SCT005

Værobservasjoner og værvarsel for over 4000 flyplasser (METAR- og TAF-rapporter).

Tilgjengelige stasjoner er representert av de røde og gule prikkene på kartet.

Hold musepekeren over prikken for å se navnet på stasjonen.

Klikk så for å se værobservasjoner og -varsler.

For å forandre kartet kan du klikke på den grønne knappen med svart kryss for å zoome inn, på den grønne knappen med strek for å zoome ut, eller på de grønne pilene for å se tilstøtende kart.


METAR-TAF: